createdAt,value
2023-02-26T00:02:11.925Z,4.10
2023-02-26T00:04:45.924Z,3.63
2023-02-26T00:07:18.249Z,4.05
2023-02-26T00:09:47.303Z,4.58
2023-02-26T00:12:18.996Z,5.00
2023-02-26T00:14:50.070Z,5.30
2023-02-26T00:17:40.493Z,5.47
2023-02-26T00:20:13.879Z,4.86
2023-02-26T00:22:45.332Z,4.00
2023-02-26T00:25:16.374Z,3.83
2023-02-26T00:27:53.410Z,4.33
2023-02-26T00:30:23.812Z,4.79
2023-02-26T00:32:56.910Z,5.15
2023-02-26T00:35:27.627Z,5.40
2023-02-26T00:38:07.657Z,5.36
2023-02-26T00:40:47.026Z,4.47
2023-02-26T00:43:47.527Z,3.68
2023-02-26T00:46:34.685Z,3.70
2023-02-26T00:49:24.673Z,4.26
2023-02-26T00:52:06.466Z,4.72
2023-02-26T00:54:36.602Z,5.02
2023-02-26T00:57:07.242Z,5.27
2023-02-26T00:59:52.851Z,4.87
2023-02-26T01:02:32.665Z,4.01
2023-02-26T01:05:08.723Z,3.51
2023-02-26T01:07:56.784Z,3.93
2023-02-26T01:10:34.225Z,4.52
2023-02-26T01:13:08.562Z,4.97
2023-02-26T01:15:42.168Z,5.33
2023-02-26T01:18:28.075Z,5.50
2023-02-26T01:21:04.622Z,4.73
2023-02-26T01:24:05.895Z,3.97
2023-02-26T01:26:42.821Z,3.38
2023-02-26T01:29:22.636Z,3.71
2023-02-26T01:32:12.282Z,4.31
2023-02-26T01:35:04.505Z,4.77
2023-02-26T01:37:44.519Z,5.10
2023-02-26T01:40:53.774Z,4.66
2023-02-26T01:44:16.947Z,3.55
2023-02-26T01:47:09.233Z,3.61
2023-02-26T01:49:58.078Z,4.17
2023-02-26T01:52:56.917Z,4.62
2023-02-26T01:55:29.279Z,4.92
2023-02-26T01:58:02.806Z,5.08
2023-02-26T02:00:34.909Z,4.43
2023-02-26T02:03:06.166Z,3.64
2023-02-26T02:06:12.877Z,3.04
2023-02-26T02:08:47.134Z,3.33
2023-02-26T02:11:18.342Z,3.90
2023-02-26T02:14:19.735Z,4.37
2023-02-26T02:17:18.346Z,4.79
2023-02-26T02:20:00.936Z,5.10
2023-02-26T02:22:55.359Z,4.71
2023-02-26T02:26:07.101Z,3.73
2023-02-26T02:29:12.295Z,3.16
2023-02-26T02:32:10.770Z,3.69
2023-02-26T02:34:46.194Z,4.28
2023-02-26T02:37:26.584Z,4.71
2023-02-26T02:40:06.057Z,5.00
2023-02-26T02:43:15.923Z,5.04
2023-02-26T02:45:56.576Z,4.03
2023-02-26T02:48:39.629Z,3.33
2023-02-26T02:51:19.344Z,3.55
2023-02-26T02:54:22.872Z,4.06
2023-02-26T02:57:09.025Z,4.52
2023-02-26T02:59:52.990Z,4.81
2023-02-26T03:03:00.652Z,4.97
2023-02-26T03:05:31.337Z,4.18
2023-02-26T03:08:15.120Z,3.37
2023-02-26T03:10:46.516Z,3.30
2023-02-26T03:13:42.535Z,3.87
2023-02-26T03:16:54.048Z,4.30
2023-02-26T03:20:11.015Z,4.62
2023-02-26T03:23:17.348Z,4.86
2023-02-26T03:26:21.565Z,4.46
2023-02-26T03:29:27.616Z,3.48
2023-02-26T03:32:53.243Z,3.29
2023-02-26T03:36:07.367Z,3.83
2023-02-26T03:39:36.931Z,4.29
2023-02-26T03:42:21.729Z,4.67
2023-02-26T03:45:19.602Z,4.93
2023-02-26T03:47:55.144Z,4.91
2023-02-26T03:51:05.609Z,4.07
2023-02-26T03:54:31.146Z,3.00
2023-02-26T03:57:20.197Z,3.06
2023-02-26T04:00:18.091Z,3.67
2023-02-26T04:03:08.173Z,4.11
2023-02-26T04:05:54.656Z,4.42
2023-02-26T04:08:27.803Z,4.66
2023-02-26T04:11:20.541Z,4.87
2023-02-26T04:14:17.219Z,5.01
2023-02-26T04:16:49.198Z,4.35
2023-02-26T04:19:22.205Z,3.49
2023-02-26T04:23:12.390Z,3.12
2023-02-26T04:25:41.143Z,3.63
2023-02-26T04:28:13.447Z,4.08
2023-02-26T04:30:45.508Z,4.35
2023-02-26T04:33:16.683Z,4.55
2023-02-26T04:35:47.390Z,4.69
2023-02-26T04:38:34.518Z,4.86
2023-02-26T04:41:09.357Z,4.50
2023-02-26T04:43:39.908Z,3.62
2023-02-26T04:46:17.797Z,3.13
2023-02-26T04:48:47.207Z,3.54
2023-02-26T04:51:34.996Z,3.98
2023-02-26T04:57:06.105Z,4.58
2023-02-26T05:00:04.550Z,4.78
2023-02-26T05:03:05.594Z,4.50
2023-02-26T05:05:58.498Z,3.48
2023-02-26T05:11:46.986Z,3.13
2023-02-26T05:38:00.608Z,4.44
2023-02-26T05:50:05.182Z,3.71
2023-02-26T05:59:41.421Z,4.84
2023-02-26T06:02:26.018Z,5.24
2023-02-26T06:24:47.963Z,5.64
2023-02-26T06:31:11.019Z,4.41
2023-02-26T06:37:31.945Z,4.67
2023-02-26T06:41:00.020Z,5.34
2023-02-26T06:53:15.705Z,4.13
2023-02-26T06:55:55.531Z,4.77
2023-02-26T06:58:26.174Z,5.37
2023-02-26T07:01:04.418Z,5.86
2023-02-26T07:03:40.052Z,5.93
2023-02-26T07:06:26.488Z,5.17
2023-02-26T07:09:02.328Z,4.41
2023-02-26T07:11:33.136Z,4.44
2023-02-26T07:14:07.082Z,5.10
2023-02-26T07:16:35.693Z,5.69
2023-02-26T07:19:04.504Z,6.18
2023-02-26T07:21:33.451Z,6.10
2023-02-26T07:24:02.716Z,5.47
2023-02-26T07:26:32.137Z,4.96
2023-02-26T07:29:01.691Z,4.69
2023-02-26T08:07:52.578Z,5.70
2023-02-26T08:11:02.302Z,5.10
2023-02-26T08:13:32.059Z,4.83
2023-02-26T08:16:01.339Z,5.26
2023-02-26T08:18:30.724Z,6.00
2023-02-26T08:20:59.389Z,6.61
2023-02-26T08:23:28.245Z,6.35
2023-02-26T08:26:16.710Z,5.77
2023-02-26T08:29:13.201Z,5.24
2023-02-26T08:32:06.923Z,4.87
2023-02-26T09:29:19.936Z,5.65
2023-02-26T09:32:05.909Z,6.28
2023-02-26T09:35:26.943Z,5.83
2023-02-26T09:38:00.598Z,5.36
2023-02-26T09:41:00.461Z,5.05
2023-02-26T09:44:04.465Z,4.81
2023-02-26T09:46:40.655Z,4.67
2023-02-26T09:49:26.870Z,4.72
2023-02-26T09:52:35.466Z,5.64
2023-02-26T09:55:33.035Z,6.84
2023-02-26T09:58:36.129Z,6.75
2023-02-26T10:01:26.954Z,6.31
2023-02-26T10:04:20.741Z,6.07
2023-02-26T10:07:01.958Z,5.90
2023-02-26T10:09:58.535Z,5.80
2023-02-26T10:12:38.185Z,5.70
2023-02-26T10:15:12.661Z,5.63
2023-02-26T10:17:52.627Z,5.59
2023-02-26T10:20:39.980Z,5.59
2023-02-26T10:23:33.450Z,5.59
2023-02-26T10:26:37.589Z,5.57
2023-02-26T10:29:55.170Z,5.51
2023-02-26T10:32:54.758Z,5.42
2023-02-26T10:36:13.441Z,5.34
2023-02-26T10:43:03.608Z,5.31
2023-02-26T10:46:14.959Z,5.30
2023-02-26T10:49:10.230Z,5.24
2023-02-26T10:51:43.423Z,5.14
2023-02-26T10:54:29.746Z,5.04
2023-02-26T10:57:01.874Z,4.91
2023-02-26T11:00:07.235Z,4.75
2023-02-26T11:03:11.805Z,4.62
2023-02-26T11:06:47.648Z,4.46
2023-02-26T11:10:08.727Z,4.37
2023-02-26T11:13:17.026Z,4.33
2023-02-26T11:15:53.022Z,4.29
2023-02-26T11:18:57.430Z,4.23
2023-02-26T11:21:38.513Z,4.18
2023-02-26T11:24:37.185Z,4.12
2023-02-26T11:27:16.563Z,4.12
2023-02-26T11:30:25.705Z,4.18
2023-02-26T11:33:06.792Z,4.38
2023-02-26T11:36:40.706Z,4.66
2023-02-26T11:39:53.548Z,4.84
2023-02-26T11:51:34.838Z,6.06
2023-02-26T12:18:02.418Z,4.66
2023-02-26T12:26:17.931Z,4.49
2023-02-26T12:30:03.760Z,4.42
2023-02-26T12:33:37.434Z,4.37
2023-02-26T12:41:43.451Z,4.25
2023-02-26T12:55:41.259Z,4.10
2023-02-26T12:59:56.211Z,4.10
2023-02-26T13:08:25.782Z,4.05
2023-02-26T13:11:33.308Z,3.98
2023-02-26T13:14:23.322Z,3.91
2023-02-26T13:17:13.923Z,3.87
2023-02-26T13:19:53.082Z,3.86
2023-02-26T13:22:41.089Z,3.91
2023-02-26T13:25:41.655Z,4.00
2023-02-26T13:28:40.237Z,4.11
2023-02-26T13:31:19.471Z,4.23
2023-02-26T13:33:52.214Z,4.34
2023-02-26T13:36:27.065Z,4.47
2023-02-26T13:39:14.971Z,4.59
2023-02-26T13:42:29.144Z,4.63
2023-02-26T13:45:54.633Z,4.60
2023-02-26T13:48:57.724Z,4.48
2023-02-26T13:51:56.825Z,4.35
2023-02-26T13:54:47.421Z,4.21
2023-02-26T13:57:27.945Z,4.13
2023-02-26T14:00:50.297Z,4.06
2023-02-26T14:04:41.339Z,4.03
2023-02-26T14:08:38.385Z,4.10
2023-02-26T14:17:28.146Z,4.83
2023-02-26T14:52:30.613Z,4.84
2023-02-26T14:55:32.764Z,4.77
2023-02-26T14:58:42.769Z,4.72
2023-02-26T15:01:30.223Z,4.71
2023-02-26T15:04:36.233Z,4.69
2023-02-26T15:07:36.721Z,4.62
2023-02-26T15:10:45.230Z,4.56
2023-02-26T15:13:34.491Z,4.53
2023-02-26T15:16:13.977Z,4.54
2023-02-26T15:19:16.806Z,4.53
2023-02-26T15:22:07.384Z,4.48
2023-02-26T15:24:37.091Z,4.39
2023-02-26T15:27:12.008Z,4.32
2023-02-26T15:29:43.475Z,4.23
2023-02-26T15:32:27.902Z,4.16
2023-02-26T15:35:09.504Z,4.09
2023-02-26T15:37:39.303Z,4.04
2023-02-26T15:40:10.380Z,4.00
2023-02-26T15:42:42.235Z,4.02
2023-02-26T15:45:32.520Z,4.13
2023-02-26T15:48:08.570Z,4.16
2023-02-26T15:50:42.110Z,4.13
2023-02-26T15:53:35.193Z,4.07
2023-02-26T15:56:23.406Z,3.99
2023-02-26T15:59:03.372Z,3.89
2023-02-26T16:01:32.770Z,3.80
2023-02-26T16:04:08.802Z,3.70
2023-02-26T16:06:49.289Z,3.59
2023-02-26T16:09:32.412Z,3.49
2023-02-26T16:12:13.344Z,3.38
2023-02-26T16:14:49.189Z,3.26
2023-02-26T16:17:31.780Z,3.15
2023-02-26T16:20:11.124Z,3.04
2023-02-26T16:22:51.906Z,2.94
2023-02-26T16:25:35.954Z,2.84
2023-02-26T16:28:21.652Z,2.75
2023-02-26T16:30:56.609Z,2.67
2023-02-26T16:33:28.622Z,2.60
2023-02-26T16:36:17.675Z,2.54
2023-02-26T16:39:08.880Z,2.48
2023-02-26T16:41:43.292Z,2.43
2023-02-26T16:44:33.414Z,2.38
2023-02-26T16:47:23.742Z,2.34
2023-02-26T16:49:58.862Z,2.30
2023-02-26T16:52:30.899Z,2.25
2023-02-26T16:55:11.919Z,2.21
2023-02-26T16:57:46.029Z,2.16
2023-02-26T17:00:33.808Z,2.11
2023-02-26T17:03:07.141Z,2.05
2023-02-26T17:05:59.330Z,1.99
2023-02-26T17:08:36.583Z,1.93
2023-02-26T17:11:18.536Z,2.33
2023-02-26T17:14:12.978Z,3.33
2023-02-26T17:16:44.621Z,4.18
2023-02-26T17:19:16.080Z,4.02
2023-02-26T17:21:55.718Z,3.55
2023-02-26T17:24:32.725Z,3.17
2023-02-26T17:27:06.496Z,2.89
2023-02-26T17:29:39.936Z,2.67
2023-02-26T17:32:23.431Z,2.48
2023-02-26T17:34:54.002Z,2.30
2023-02-26T17:37:32.287Z,2.16
2023-02-26T17:40:04.474Z,2.00
2023-02-26T17:42:37.642Z,1.86
2023-02-26T17:45:07.561Z,1.73
2023-02-26T17:47:36.476Z,1.60
2023-02-26T17:50:45.444Z,1.74
2023-02-26T17:53:21.976Z,2.77
2023-02-26T17:55:54.149Z,3.58
2023-02-26T17:58:35.818Z,3.91
2023-02-26T18:01:05.460Z,3.33
2023-02-26T18:03:34.523Z,2.84
2023-02-26T18:06:04.681Z,2.47
2023-02-26T18:08:36.504Z,2.18
2023-02-26T18:11:05.458Z,1.94
2023-02-26T18:13:35.717Z,1.73
2023-02-26T18:16:05.958Z,1.54
2023-02-26T18:18:36.124Z,1.36
2023-02-26T18:21:06.570Z,1.19
2023-02-26T18:23:35.383Z,1.40
2023-02-26T18:26:04.733Z,2.24
2023-02-26T18:28:34.068Z,3.01
2023-02-26T18:31:09.233Z,3.47
2023-02-26T18:33:42.907Z,3.04
2023-02-26T18:36:38.234Z,2.49
2023-02-26T18:39:13.639Z,2.01
2023-02-26T18:41:44.614Z,1.70
2023-02-26T18:44:13.359Z,1.45
2023-02-26T18:46:43.076Z,1.23
2023-02-26T18:49:19.000Z,1.05
2023-02-26T18:51:48.154Z,1.43
2023-02-26T18:54:17.811Z,2.26
2023-02-26T18:56:47.556Z,3.01
2023-02-26T18:59:16.257Z,3.53
2023-02-26T19:01:49.573Z,3.22
2023-02-26T19:04:25.424Z,2.68
2023-02-26T19:06:56.092Z,2.27
2023-02-26T19:09:31.365Z,2.00
2023-02-26T19:12:06.125Z,1.77
2023-02-26T19:14:36.108Z,1.61
2023-02-26T19:17:06.364Z,1.47
2023-02-26T19:19:45.794Z,1.35
2023-02-26T19:22:16.964Z,1.24
2023-02-26T19:24:50.446Z,1.15
2023-02-26T19:27:21.301Z,1.19
2023-02-26T19:29:50.933Z,1.97
2023-02-26T19:32:21.993Z,2.86
2023-02-26T19:34:53.047Z,3.63
2023-02-26T19:37:26.988Z,3.87
2023-02-26T19:39:56.683Z,3.33
2023-02-26T19:42:28.661Z,2.87
2023-02-26T19:44:59.857Z,2.54
2023-02-26T19:50:12.139Z,2.08
2023-02-26T19:52:43.363Z,1.92
2023-02-26T19:55:15.256Z,1.78
2023-02-26T19:57:48.344Z,1.65
2023-02-26T20:00:22.740Z,1.54
2023-02-26T20:05:38.040Z,1.35
2023-02-26T20:11:06.520Z,1.19
2023-02-26T20:13:36.764Z,1.13
2023-02-26T20:16:09.367Z,1.07
2023-02-26T20:18:40.524Z,1.02
2023-02-26T20:21:14.521Z,0.97
2023-02-26T20:23:56.947Z,0.92
2023-02-26T20:26:26.578Z,0.89
2023-02-26T20:29:01.697Z,0.85
2023-02-26T20:31:32.326Z,0.82
2023-02-26T20:34:01.864Z,0.79
2023-02-26T20:36:35.736Z,0.76
2023-02-26T20:39:07.609Z,0.74
2023-02-26T20:41:36.773Z,0.72
2023-02-26T20:44:05.897Z,0.69
2023-02-26T20:46:36.647Z,0.67
2023-02-26T20:49:14.073Z,0.66
2023-02-26T20:51:44.573Z,0.65
2023-02-26T20:54:17.077Z,0.64
2023-02-26T20:56:46.170Z,0.63
2023-02-26T20:59:19.646Z,0.61
2023-02-26T21:01:52.064Z,0.61
2023-02-26T21:04:23.229Z,0.59
2023-02-26T21:06:52.864Z,0.58
2023-02-26T21:09:21.949Z,0.57
2023-02-26T21:11:52.773Z,1.06
2023-02-26T21:14:22.120Z,2.04
2023-02-26T21:17:00.470Z,2.91
2023-02-26T21:19:29.570Z,3.03
2023-02-26T21:22:06.348Z,2.57
2023-02-26T21:24:36.311Z,2.22
2023-02-26T21:27:07.405Z,1.97
2023-02-26T21:29:36.655Z,1.79
2023-02-26T21:32:07.563Z,1.64
2023-02-26T21:34:36.912Z,1.51
2023-02-26T21:37:11.469Z,1.40
2023-02-26T21:39:44.075Z,1.30
2023-02-26T21:42:16.834Z,1.22
2023-02-26T21:44:47.957Z,1.12
2023-02-26T21:47:19.276Z,1.04
2023-02-26T21:49:51.838Z,0.96
2023-02-26T21:52:21.538Z,0.89
2023-02-26T21:54:50.943Z,0.84
2023-02-26T21:57:19.955Z,1.11
2023-02-26T21:59:51.422Z,2.02
2023-02-26T22:02:20.565Z,2.89
2023-02-26T22:04:50.077Z,3.48
2023-02-26T22:07:20.219Z,3.23
2023-02-26T22:09:50.762Z,2.73
2023-02-26T22:12:21.927Z,2.36
2023-02-26T22:14:51.100Z,2.08
2023-02-26T22:17:20.329Z,1.87
2023-02-26T22:19:49.649Z,1.70
2023-02-26T22:22:20.654Z,1.55
2023-02-26T22:24:52.233Z,1.40
2023-02-26T22:27:22.820Z,1.28
2023-02-26T22:29:53.813Z,1.17
2023-02-26T22:32:24.096Z,1.06
2023-02-26T22:34:56.209Z,0.97
2023-02-26T22:37:25.323Z,1.11
2023-02-26T22:39:55.252Z,1.96
2023-02-26T22:42:25.150Z,2.81
2023-02-26T22:44:54.207Z,3.50
2023-02-26T22:47:23.675Z,3.47
2023-02-26T22:49:53.763Z,2.92
2023-02-26T22:52:27.829Z,2.47
2023-02-26T22:54:58.340Z,2.15
2023-02-26T22:57:30.246Z,1.91
2023-02-26T23:00:00.086Z,1.71
2023-02-26T23:02:30.306Z,1.55
2023-02-26T23:05:00.261Z,1.39
2023-02-26T23:07:32.509Z,1.27
2023-02-26T23:10:02.318Z,1.18
2023-02-26T23:12:37.058Z,1.79
2023-02-26T23:15:09.309Z,2.65
2023-02-26T23:17:38.358Z,3.39
2023-02-26T23:20:10.398Z,3.45
2023-02-26T23:22:43.191Z,2.90
2023-02-26T23:25:13.644Z,2.46
2023-02-26T23:27:46.066Z,2.15
2023-02-26T23:30:16.974Z,1.89
2023-02-26T23:32:49.750Z,1.68
2023-02-26T23:35:19.036Z,1.48
2023-02-26T23:37:50.027Z,1.43
2023-02-26T23:40:22.322Z,2.09
2023-02-26T23:42:51.436Z,2.89
2023-02-26T23:45:24.376Z,3.48
2023-02-26T23:47:57.129Z,3.26
2023-02-26T23:50:32.426Z,2.64
2023-02-26T23:53:02.182Z,2.18
2023-02-26T23:55:32.497Z,1.83
2023-02-26T23:58:06.537Z,1.53
